createdAt,value
2018-09-22T00:00:16.746Z,13.67
2018-09-22T00:00:42.881Z,13.62
2018-09-22T00:01:09.032Z,13.63
2018-09-22T00:01:35.224Z,13.6
2018-09-22T00:02:01.487Z,13.6
2018-09-22T00:02:27.724Z,13.5
2018-09-22T00:02:53.848Z,13.59
2018-09-22T00:03:20.226Z,13.62
2018-09-22T00:03:46.475Z,13.6
2018-09-22T00:04:12.685Z,13.62
2018-09-22T00:04:38.895Z,13.62
2018-09-22T00:05:05.080Z,13.6
2018-09-22T00:05:31.218Z,13.75
2018-09-22T00:05:57.480Z,13.71
2018-09-22T00:06:23.615Z,13.7
2018-09-22T00:06:49.747Z,13.54
2018-09-22T00:07:15.885Z,13.56
2018-09-22T00:07:42.009Z,13.67
2018-09-22T00:08:08.212Z,13.6
2018-09-22T00:08:34.294Z,13.71
2018-09-22T00:09:00.742Z,13.62
2018-09-22T00:09:27.015Z,13.56
2018-09-22T00:09:53.358Z,13.57
2018-09-22T00:10:19.590Z,13.63
2018-09-22T00:10:46.221Z,13.6
2018-09-22T00:11:12.616Z,13.62
2018-09-22T00:11:38.702Z,13.52
2018-09-22T00:12:05.266Z,13.62
2018-09-22T00:12:31.445Z,13.53
2018-09-22T00:12:58.309Z,13.53
2018-09-22T00:13:24.697Z,13.6
2018-09-22T00:13:50.789Z,13.67
2018-09-22T00:14:17.272Z,13.68
2018-09-22T00:14:43.818Z,13.65
2018-09-22T00:15:10.731Z,13.57
2018-09-22T00:15:36.876Z,13.56
2018-09-22T00:16:03.829Z,13.57
2018-09-22T00:16:30.011Z,13.6
2018-09-22T00:16:56.456Z,13.68
2018-09-22T00:17:23.011Z,13.6
2018-09-22T00:17:49.579Z,13.72
2018-09-22T00:18:15.712Z,13.72
2018-09-22T00:18:41.840Z,13.77
2018-09-22T00:19:07.972Z,13.7
2018-09-22T00:19:34.135Z,13.57
2018-09-22T00:20:00.270Z,13.77
2018-09-22T00:20:26.404Z,13.59
2018-09-22T00:20:52.895Z,13.6
2018-09-22T00:21:18.959Z,13.63
2018-09-22T00:21:45.228Z,13.6
2018-09-22T00:22:11.540Z,13.7
2018-09-22T00:22:38.639Z,13.71
2018-09-22T00:23:04.778Z,13.65
2018-09-22T00:23:30.926Z,13.63
2018-09-22T00:23:57.053Z,13.67
2018-09-22T00:24:23.185Z,13.6
2018-09-22T00:24:49.327Z,13.68
2018-09-22T00:25:15.458Z,13.7
2018-09-22T00:25:41.620Z,13.62
2018-09-22T00:26:07.753Z,13.7
2018-09-22T00:26:33.883Z,13.68
2018-09-22T00:27:00.040Z,13.63
2018-09-22T00:27:26.338Z,13.62
2018-09-22T00:27:52.888Z,13.6
2018-09-22T00:28:19.318Z,13.67
2018-09-22T00:28:45.525Z,13.6
2018-09-22T00:29:11.728Z,13.77
2018-09-22T00:29:37.995Z,13.72
2018-09-22T00:30:04.054Z,13.68
2018-09-22T00:30:30.216Z,13.71
2018-09-22T00:30:56.346Z,13.67
2018-09-22T00:31:22.476Z,13.71
2018-09-22T00:31:48.609Z,13.74
2018-09-22T00:32:14.767Z,13.71
2018-09-22T00:32:40.904Z,13.67
2018-09-22T00:33:07.033Z,13.68
2018-09-22T00:33:33.167Z,13.57
2018-09-22T00:33:59.297Z,13.53
2018-09-22T00:34:25.437Z,13.5
2018-09-22T00:34:51.596Z,13.53
2018-09-22T00:35:17.722Z,13.54
2018-09-22T00:35:43.861Z,13.49
2018-09-22T00:36:10.017Z,13.54
2018-09-22T00:36:36.175Z,13.52
2018-09-22T00:37:02.305Z,13.6
2018-09-22T00:37:28.445Z,13.53
2018-09-22T00:37:54.603Z,13.5
2018-09-22T00:38:20.755Z,13.39
2018-09-22T00:38:46.892Z,13.44
2018-09-22T00:39:13.023Z,13.53
2018-09-22T00:39:39.155Z,13.47
2018-09-22T00:40:05.282Z,13.52
2018-09-22T00:40:31.484Z,13.54
2018-09-22T00:40:57.639Z,13.53
2018-09-22T00:41:23.772Z,13.38
2018-09-22T00:41:49.929Z,13.5
2018-09-22T00:42:16.065Z,13.53
2018-09-22T00:42:42.193Z,13.52
2018-09-22T00:43:08.327Z,13.53
2018-09-22T00:43:34.483Z,13.47
2018-09-22T00:44:00.615Z,13.5
2018-09-22T00:44:26.753Z,13.57
2018-09-22T00:44:52.889Z,13.57
2018-09-22T00:45:19.027Z,13.59
2018-09-22T00:45:45.161Z,13.54
2018-09-22T00:46:11.293Z,13.6
2018-09-22T00:46:37.422Z,13.62
2018-09-22T00:47:03.556Z,13.62
2018-09-22T00:47:29.711Z,13.62
2018-09-22T00:47:55.843Z,13.62
2018-09-22T00:48:22.039Z,13.53
2018-09-22T00:48:48.185Z,13.6
2018-09-22T00:49:14.325Z,13.56
2018-09-22T00:49:40.457Z,13.59
2018-09-22T00:50:06.590Z,13.49
2018-09-22T00:50:32.746Z,13.54
2018-09-22T00:50:58.889Z,13.57
2018-09-22T00:51:25.026Z,13.47
2018-09-22T00:51:51.166Z,13.56
2018-09-22T00:52:17.289Z,13.41
2018-09-22T00:52:43.427Z,13.42
2018-09-22T00:53:09.555Z,13.47
2018-09-22T00:53:35.695Z,13.5
2018-09-22T00:54:01.860Z,13.49
2018-09-22T00:54:27.991Z,13.53
2018-09-22T00:54:54.125Z,13.5
2018-09-22T00:55:20.269Z,13.47
2018-09-22T00:55:46.399Z,13.39
2018-09-22T00:56:12.535Z,13.41
2018-09-22T00:56:38.664Z,13.41
2018-09-22T00:57:04.795Z,13.44
2018-09-22T00:57:30.955Z,13.38
2018-09-22T00:57:57.119Z,13.44
2018-09-22T00:58:23.273Z,13.38
2018-09-22T00:58:49.404Z,13.49
2018-09-22T00:59:15.575Z,13.46
2018-09-22T00:59:41.693Z,13.47
2018-09-22T01:00:07.844Z,13.44
2018-09-22T01:00:33.980Z,13.3
2018-09-22T01:01:00.117Z,13.49
2018-09-22T01:01:26.271Z,13.41
2018-09-22T01:01:52.447Z,13.38
2018-09-22T01:02:18.607Z,13.39
2018-09-22T01:02:44.758Z,13.49
2018-09-22T01:03:10.886Z,13.44
2018-09-22T01:03:37.041Z,13.44
2018-09-22T01:04:03.175Z,13.39
2018-09-22T01:04:29.354Z,13.5
2018-09-22T01:04:55.478Z,13.52
2018-09-22T01:05:21.615Z,13.46
2018-09-22T01:05:47.745Z,13.49
2018-09-22T01:06:13.875Z,13.44
2018-09-22T01:06:40.011Z,13.5
2018-09-22T01:07:06.162Z,13.49
2018-09-22T01:07:32.325Z,13.57
2018-09-22T01:07:58.455Z,13.39
2018-09-22T01:08:24.589Z,13.47
2018-09-22T01:08:50.728Z,13.49
2018-09-22T01:09:16.861Z,13.47
2018-09-22T01:09:43.015Z,13.53
2018-09-22T01:10:09.169Z,13.5
2018-09-22T01:10:35.308Z,13.38
2018-09-22T01:11:01.443Z,13.52
2018-09-22T01:11:27.575Z,13.52
2018-09-22T01:11:53.705Z,13.42
2018-09-22T01:12:19.845Z,13.41
2018-09-22T01:12:45.973Z,13.44
2018-09-22T01:13:12.112Z,13.44
2018-09-22T01:13:38.289Z,13.5
2018-09-22T01:14:04.427Z,13.54
2018-09-22T01:14:30.563Z,13.52
2018-09-22T01:14:56.692Z,13.56
2018-09-22T01:15:22.816Z,13.5
2018-09-22T01:15:49.036Z,13.53
2018-09-22T01:16:15.131Z,13.52
2018-09-22T01:16:41.279Z,13.57
2018-09-22T01:17:07.385Z,13.68
2018-09-22T01:17:33.522Z,13.59
2018-09-22T01:17:59.660Z,13.63
2018-09-22T01:18:25.793Z,13.7
2018-09-22T01:18:51.949Z,13.59
2018-09-22T01:19:18.081Z,13.65
2018-09-22T01:19:44.209Z,13.7
2018-09-22T01:20:10.354Z,13.71
2018-09-22T01:20:36.516Z,13.71
2018-09-22T01:21:02.651Z,13.71
2018-09-22T01:21:28.781Z,13.62
2018-09-22T01:21:54.920Z,13.6
2018-09-22T01:22:21.051Z,13.65
2018-09-22T01:22:47.185Z,13.67
2018-09-22T01:23:13.337Z,13.62
2018-09-22T01:23:39.472Z,13.47
2018-09-22T01:24:05.604Z,13.53
2018-09-22T01:24:31.743Z,13.54
2018-09-22T01:24:57.889Z,13.47
2018-09-22T01:25:24.024Z,13.52
2018-09-22T01:25:50.157Z,13.49
2018-09-22T01:26:16.295Z,13.53
2018-09-22T01:26:42.429Z,13.53
2018-09-22T01:27:08.563Z,13.53
2018-09-22T01:27:34.740Z,13.49
2018-09-22T01:28:00.870Z,13.52
2018-09-22T01:28:27.001Z,13.52
2018-09-22T01:28:53.154Z,13.57
2018-09-22T01:29:19.293Z,13.57
2018-09-22T01:29:45.420Z,13.54
2018-09-22T01:30:11.580Z,13.5
2018-09-22T01:30:37.739Z,13.5
2018-09-22T01:31:03.870Z,13.52
2018-09-22T01:31:30.027Z,13.47
2018-09-22T01:31:56.158Z,13.57
2018-09-22T01:32:22.314Z,13.62
2018-09-22T01:32:48.450Z,13.6
2018-09-22T01:33:14.584Z,13.71
2018-09-22T01:33:40.722Z,13.67
2018-09-22T01:34:06.853Z,13.71
2018-09-22T01:34:32.982Z,13.62
2018-09-22T01:34:59.112Z,13.68
2018-09-22T01:35:25.242Z,13.59
2018-09-22T01:35:51.376Z,13.63
2018-09-22T01:36:17.514Z,13.65
2018-09-22T01:36:43.665Z,13.63
2018-09-22T01:37:09.821Z,13.68
2018-09-22T01:37:35.974Z,13.65
2018-09-22T01:38:02.105Z,13.71
2018-09-22T01:38:28.240Z,13.63
2018-09-22T01:38:54.375Z,13.6
2018-09-22T01:39:20.516Z,13.59
2018-09-22T01:39:46.642Z,13.72
2018-09-22T01:40:12.778Z,13.71
2018-09-22T01:40:38.912Z,13.59
2018-09-22T01:41:05.052Z,13.74
2018-09-22T01:41:31.185Z,13.6
2018-09-22T01:41:57.311Z,13.68
2018-09-22T01:42:23.447Z,13.7
2018-09-22T01:42:49.580Z,13.59
2018-09-22T01:43:15.743Z,13.57
2018-09-22T01:43:41.873Z,13.67
2018-09-22T01:44:08.005Z,13.59
2018-09-22T01:44:34.136Z,13.65
2018-09-22T01:45:00.267Z,13.65
2018-09-22T01:45:26.398Z,13.71
2018-09-22T01:45:52.549Z,13.68
2018-09-22T01:46:18.681Z,13.63
2018-09-22T01:46:44.812Z,13.62
2018-09-22T01:47:10.944Z,13.52
2018-09-22T01:47:37.073Z,13.47
2018-09-22T01:48:03.242Z,13.38
2018-09-22T01:48:29.388Z,13.53
2018-09-22T01:48:55.519Z,13.52
2018-09-22T01:49:21.648Z,13.59
2018-09-22T01:49:47.778Z,13.56
2018-09-22T01:50:13.910Z,13.49
2018-09-22T01:50:40.046Z,13.47
2018-09-22T01:51:06.209Z,13.5
2018-09-22T01:51:32.364Z,13.39
2018-09-22T01:51:58.497Z,13.44
2018-09-22T01:52:24.659Z,13.3
2018-09-22T01:52:50.790Z,13.42
2018-09-22T01:53:16.945Z,13.44
2018-09-22T01:53:43.098Z,13.39
2018-09-22T01:54:09.231Z,13.47
2018-09-22T01:54:35.362Z,13.42
2018-09-22T01:55:01.521Z,13.44
2018-09-22T01:55:27.648Z,13.39
2018-09-22T01:55:53.787Z,13.44
2018-09-22T01:56:19.913Z,13.37
2018-09-22T01:56:46.049Z,13.39
2018-09-22T01:57:12.540Z,13.35
2018-09-22T01:57:38.637Z,13.41
2018-09-22T01:58:04.772Z,13.44
2018-09-22T01:58:30.905Z,13.37
2018-09-22T01:58:57.040Z,13.39
2018-09-22T01:59:23.171Z,13.38
2018-09-22T01:59:49.302Z,13.42
2018-09-22T02:00:15.457Z,13.35
2018-09-22T02:00:41.597Z,13.31
2018-09-22T02:01:07.772Z,13.28
2018-09-22T02:01:33.882Z,13.27
2018-09-22T02:02:00.015Z,13.33
2018-09-22T02:02:26.147Z,13.41
2018-09-22T02:02:52.281Z,13.33
2018-09-22T02:03:18.416Z,13.38
2018-09-22T02:03:44.567Z,13.28
2018-09-22T02:04:10.705Z,13.31
2018-09-22T02:04:36.835Z,13.38
2018-09-22T02:05:02.993Z,13.39
2018-09-22T02:05:29.124Z,13.44
2018-09-22T02:05:55.256Z,13.39
2018-09-22T02:06:21.432Z,13.38
2018-09-22T02:06:47.560Z,13.39
2018-09-22T02:07:13.693Z,13.35
2018-09-22T02:07:39.823Z,13.33
2018-09-22T02:08:05.997Z,13.44
2018-09-22T02:08:32.130Z,13.38
2018-09-22T02:08:58.269Z,13.46
2018-09-22T02:09:24.421Z,13.38
2018-09-22T02:09:50.579Z,13.33
2018-09-22T02:10:16.707Z,13.41
2018-09-22T02:10:42.870Z,13.27
2018-09-22T02:11:08.968Z,13.38
2018-09-22T02:11:35.104Z,13.44
2018-09-22T02:12:01.239Z,13.38
2018-09-22T02:12:27.394Z,13.42
2018-09-22T02:12:53.550Z,13.38
2018-09-22T02:13:19.711Z,13.41
2018-09-22T02:13:45.844Z,13.42
2018-09-22T02:14:12.001Z,13.44
2018-09-22T02:14:38.134Z,13.38
2018-09-22T02:15:04.269Z,13.38
2018-09-22T02:15:30.417Z,13.39
2018-09-22T02:15:56.555Z,13.39
2018-09-22T02:16:22.688Z,13.39
2018-09-22T02:16:48.823Z,13.39
2018-09-22T02:17:14.984Z,13.38
2018-09-22T02:17:41.133Z,13.25
2018-09-22T02:18:07.268Z,13.3
2018-09-22T02:18:33.417Z,13.3
2018-09-22T02:18:59.546Z,13.25
2018-09-22T02:19:25.704Z,13.25
2018-09-22T02:19:51.846Z,13.31
2018-09-22T02:20:18.014Z,13.23
2018-09-22T02:20:44.169Z,13.13
2018-09-22T02:21:10.300Z,13.22
2018-09-22T02:21:36.439Z,13.2
2018-09-22T02:22:02.594Z,13.11
2018-09-22T02:22:28.730Z,13.15
2018-09-22T02:22:54.881Z,13.15
2018-09-22T02:23:21.015Z,13.08
2018-09-22T02:23:47.145Z,13.11
2018-09-22T02:24:13.328Z,13.08
2018-09-22T02:24:39.462Z,13.13
2018-09-22T02:25:05.667Z,13.19
2018-09-22T02:25:31.815Z,13.16
2018-09-22T02:25:57.929Z,13.2
2018-09-22T02:26:24.082Z,13.19
2018-09-22T02:26:50.218Z,13.2
2018-09-22T02:27:16.372Z,13.19
2018-09-22T02:27:42.502Z,13.2
2018-09-22T02:28:08.637Z,13.27
2018-09-22T02:28:34.766Z,13.23
2018-09-22T02:29:00.907Z,13.27
2018-09-22T02:29:27.062Z,13.27
2018-09-22T02:29:53.200Z,13.22
2018-09-22T02:30:19.366Z,13.3
2018-09-22T02:30:45.537Z,13.31
2018-09-22T02:31:11.677Z,13.25
2018-09-22T02:31:37.847Z,13.42
2018-09-22T02:32:03.994Z,13.25
2018-09-22T02:32:30.187Z,13.27
2018-09-22T02:32:56.325Z,13.27
2018-09-22T02:33:22.481Z,13.13
2018-09-22T02:33:48.605Z,13.13
2018-09-22T02:34:14.788Z,13.16
2018-09-22T02:34:40.937Z,13.13
2018-09-22T02:35:07.098Z,13.11
2018-09-22T02:35:33.250Z,13.12
2018-09-22T02:35:59.383Z,13.12
2018-09-22T02:36:25.520Z,13.04
2018-09-22T02:36:51.648Z,13
2018-09-22T02:37:17.831Z,13.12
2018-09-22T02:37:44.013Z,13.08
2018-09-22T02:38:10.144Z,13.04
2018-09-22T02:38:36.274Z,13.08
2018-09-22T02:39:02.431Z,13.12
2018-09-22T02:39:28.650Z,13.11
2018-09-22T02:39:54.845Z,13.09
2018-09-22T02:40:21.024Z,13.11
2018-09-22T02:40:47.203Z,13.11
2018-09-22T02:41:13.361Z,13.18
2018-09-22T02:41:39.564Z,13.12
2018-09-22T02:42:05.753Z,13.11
2018-09-22T02:42:31.896Z,13.12
2018-09-22T02:42:58.099Z,13.13
2018-09-22T02:43:24.259Z,13.15
2018-09-22T02:43:50.411Z,13.19
2018-09-22T02:44:16.591Z,13.16
2018-09-22T02:44:42.745Z,13.13
2018-09-22T02:45:08.884Z,13.18
2018-09-22T02:45:35.014Z,13.15
2018-09-22T02:46:01.174Z,13.18
2018-09-22T02:46:27.325Z,13.19
2018-09-22T02:46:53.486Z,13.15
2018-09-22T02:47:19.613Z,13.13
2018-09-22T02:47:45.800Z,13.09
2018-09-22T02:48:12.000Z,13.13
2018-09-22T02:48:38.160Z,13.18
2018-09-22T02:49:04.299Z,13.11
2018-09-22T02:49:30.428Z,13.13
2018-09-22T02:49:56.579Z,13.19
2018-09-22T02:50:22.709Z,13.11
2018-09-22T02:50:48.833Z,13.15
2018-09-22T02:51:14.962Z,13.23
2018-09-22T02:51:41.114Z,13.23
2018-09-22T02:52:07.241Z,13.19
2018-09-22T02:52:33.400Z,13.3
2018-09-22T02:52:59.563Z,13.2
2018-09-22T02:53:25.688Z,13.25
2018-09-22T02:53:51.863Z,13.2
2018-09-22T02:54:17.997Z,13.11
2018-09-22T02:54:44.200Z,13.18
2018-09-22T02:55:10.379Z,13.25
2018-09-22T02:55:36.507Z,13.16
2018-09-22T02:56:02.668Z,13.09
2018-09-22T02:56:28.802Z,13.08
2018-09-22T02:56:54.957Z,13.12
2018-09-22T02:57:21.090Z,13.05
2018-09-22T02:57:47.229Z,13.11
2018-09-22T02:58:13.360Z,13.13
2018-09-22T02:58:39.518Z,13.12
2018-09-22T02:59:05.653Z,13.11
2018-09-22T02:59:31.783Z,13.12
2018-09-22T02:59:57.967Z,13.18
2018-09-22T03:00:24.098Z,13.11
2018-09-22T03:00:50.279Z,13.12
2018-09-22T03:01:16.433Z,13.03
2018-09-22T03:01:42.568Z,13
2018-09-22T03:02:08.697Z,12.98
2018-09-22T03:02:34.838Z,13.08
2018-09-22T03:03:00.995Z,13.03
2018-09-22T03:03:27.157Z,12.97
2018-09-22T03:03:53.284Z,13.03
2018-09-22T03:04:19.454Z,13.05
2018-09-22T03:04:45.631Z,13.04
2018-09-22T03:05:11.808Z,13.01
2018-09-22T03:05:37.968Z,13
2018-09-22T03:06:04.122Z,12.93
2018-09-22T03:06:30.278Z,12.97
2018-09-22T03:06:56.412Z,13.08
2018-09-22T03:07:22.565Z,13.11
2018-09-22T03:07:48.707Z,13.08
2018-09-22T03:08:14.837Z,13.09
2018-09-22T03:08:41.053Z,13.13
2018-09-22T03:09:07.120Z,13.19
2018-09-22T03:09:33.279Z,13.12
2018-09-22T03:09:59.444Z,13.16
2018-09-22T03:10:25.586Z,13.13
2018-09-22T03:10:51.721Z,13.16
2018-09-22T03:11:17.868Z,13.11
2018-09-22T03:11:44.022Z,13.12
2018-09-22T03:12:10.160Z,13.16
2018-09-22T03:12:36.295Z,13.11
2018-09-22T03:13:02.455Z,13.04
2018-09-22T03:13:28.620Z,12.98
2018-09-22T03:13:54.737Z,13
2018-09-22T03:14:20.906Z,13.05
2018-09-22T03:14:47.065Z,13.12
2018-09-22T03:15:13.231Z,13.05
2018-09-22T03:15:39.402Z,13.08
2018-09-22T03:16:05.558Z,13.09
2018-09-22T03:16:31.687Z,13.11
2018-09-22T03:16:57.844Z,13.11
2018-09-22T03:17:24.022Z,13.15
2018-09-22T03:17:50.152Z,13.16
2018-09-22T03:18:16.283Z,13.13
2018-09-22T03:18:42.435Z,13.18
2018-09-22T03:19:08.559Z,13.09
2018-09-22T03:19:34.696Z,13.09
2018-09-22T03:20:00.853Z,13.05
2018-09-22T03:20:27.012Z,13.05
2018-09-22T03:20:53.193Z,12.97
2018-09-22T03:21:19.343Z,13.03
2018-09-22T03:21:45.473Z,13.05
2018-09-22T03:22:11.628Z,13
2018-09-22T03:22:37.781Z,12.98
2018-09-22T03:23:03.919Z,12.98
2018-09-22T03:23:30.042Z,12.98
2018-09-22T03:23:56.195Z,13.04
2018-09-22T03:24:22.375Z,13
2018-09-22T03:24:48.509Z,13.05
2018-09-22T03:25:14.662Z,13.09
2018-09-22T03:25:40.800Z,13.09
2018-09-22T03:26:06.935Z,13.16
2018-09-22T03:26:33.064Z,13.13
2018-09-22T03:26:59.202Z,13.11
2018-09-22T03:27:25.380Z,13.27
2018-09-22T03:27:51.510Z,13.19
2018-09-22T03:28:17.652Z,13.22
2018-09-22T03:28:43.812Z,13.25
2018-09-22T03:29:09.959Z,13.28
2018-09-22T03:29:36.149Z,13.27
2018-09-22T03:30:02.277Z,13.31
2018-09-22T03:30:28.453Z,13.3
2018-09-22T03:30:54.617Z,13.23
2018-09-22T03:31:20.791Z,13.23
2018-09-22T03:31:46.948Z,13.27
2018-09-22T03:32:13.081Z,13.09
2018-09-22T03:32:39.213Z,13.11
2018-09-22T03:33:05.345Z,13.09
2018-09-22T03:33:31.505Z,13.09
2018-09-22T03:33:57.643Z,13.11
2018-09-22T03:34:23.776Z,13.12
2018-09-22T03:34:49.903Z,13.09
2018-09-22T03:35:16.045Z,13.13
2018-09-22T03:35:42.241Z,13.18
2018-09-22T03:36:08.409Z,13.19
2018-09-22T03:36:34.561Z,13.12
2018-09-22T03:37:00.695Z,13.19
2018-09-22T03:37:26.831Z,13.2
2018-09-22T03:37:52.963Z,13.28
2018-09-22T03:38:19.096Z,13.2
2018-09-22T03:38:45.251Z,13.12
2018-09-22T03:39:11.377Z,13.19
2018-09-22T03:39:37.540Z,13.2
2018-09-22T03:40:03.721Z,13.28
2018-09-22T03:40:29.875Z,13.28
2018-09-22T03:40:56.006Z,13.27
2018-09-22T03:41:22.136Z,13.3
2018-09-22T03:41:48.299Z,13.27
2018-09-22T03:42:14.433Z,13.35
2018-09-22T03:42:40.559Z,13.38
2018-09-22T03:43:06.696Z,13.27
2018-09-22T03:43:32.839Z,13.35
2018-09-22T03:43:58.965Z,13.38
2018-09-22T03:44:25.151Z,13.39
2018-09-22T03:44:51.280Z,13.35
2018-09-22T03:45:17.467Z,13.37
2018-09-22T03:45:43.596Z,13.3
2018-09-22T03:46:09.760Z,13.27
2018-09-22T03:46:35.886Z,13.31
2018-09-22T03:47:02.041Z,13.33
2018-09-22T03:47:28.262Z,13.28
2018-09-22T03:47:54.383Z,13.19
2018-09-22T03:48:20.560Z,13.18
2018-09-22T03:48:46.688Z,13.28
2018-09-22T03:49:12.810Z,13.2
2018-09-22T03:49:38.967Z,13.28
2018-09-22T03:50:05.101Z,13.23
2018-09-22T03:50:31.257Z,13.33
2018-09-22T03:50:57.417Z,13.37
2018-09-22T03:51:23.543Z,13.27
2018-09-22T03:51:49.728Z,13.18
2018-09-22T03:52:15.861Z,13.25
2018-09-22T03:52:42.011Z,13.3
2018-09-22T03:53:08.145Z,13.27
2018-09-22T03:53:34.323Z,13.28
2018-09-22T03:54:00.463Z,13.23
2018-09-22T03:54:26.594Z,13.28
2018-09-22T03:54:52.758Z,13.18
2018-09-22T03:55:18.911Z,13.2
2018-09-22T03:55:45.085Z,13.18
2018-09-22T03:56:11.272Z,13.16
2018-09-22T03:56:37.407Z,13.15
2018-09-22T03:57:03.531Z,13.13
2018-09-22T03:57:29.696Z,13.12
2018-09-22T03:57:55.847Z,13.13
2018-09-22T03:58:22.007Z,13.18
2018-09-22T03:58:48.135Z,13.13
2018-09-22T03:59:14.293Z,13.15
2018-09-22T03:59:40.422Z,13.18
2018-09-22T04:00:06.556Z,13.16
2018-09-22T04:00:32.709Z,13.13
2018-09-22T04:00:58.844Z,13.11
2018-09-22T04:01:25.019Z,13.05
2018-09-22T04:01:51.151Z,13.13
2018-09-22T04:02:17.332Z,13.11
2018-09-22T04:02:43.472Z,13.08
2018-09-22T04:03:09.605Z,13.11
2018-09-22T04:03:35.753Z,13.16
2018-09-22T04:04:01.893Z,13.18
2018-09-22T04:04:28.018Z,13.15
2018-09-22T04:04:54.178Z,13.3
2018-09-22T04:05:20.315Z,13.19
2018-09-22T04:05:46.444Z,13.22
2018-09-22T04:06:12.604Z,13.3
2018-09-22T04:06:38.762Z,13.28
2018-09-22T04:07:04.899Z,13.28
2018-09-22T04:07:31.052Z,13.19
2018-09-22T04:07:57.216Z,13.23
2018-09-22T04:08:23.394Z,13.28
2018-09-22T04:08:49.531Z,13.31
2018-09-22T04:09:15.664Z,13.27
2018-09-22T04:09:41.794Z,13.18
2018-09-22T04:10:07.944Z,13.11
2018-09-22T04:10:34.079Z,13.11
2018-09-22T04:11:00.209Z,13.09
2018-09-22T04:11:26.389Z,13.12
2018-09-22T04:11:52.520Z,13.12
2018-09-22T04:12:18.677Z,13.09
2018-09-22T04:12:44.832Z,13.11
2018-09-22T04:13:10.998Z,13.09
2018-09-22T04:13:37.161Z,13.08
2018-09-22T04:14:03.296Z,13.11
2018-09-22T04:14:29.445Z,12.98
2018-09-22T04:14:55.572Z,12.97
2018-09-22T04:15:21.709Z,13.01
2018-09-22T04:15:47.864Z,13.09
2018-09-22T04:16:14.004Z,13.05
2018-09-22T04:16:40.175Z,12.95
2018-09-22T04:17:06.331Z,13.12
2018-09-22T04:17:32.466Z,13.09
2018-09-22T04:17:58.612Z,13.08
2018-09-22T04:18:24.789Z,13.12
2018-09-22T04:18:50.917Z,13.15
2018-09-22T04:19:17.077Z,13.22
2018-09-22T04:19:43.227Z,13.2
2018-09-22T04:20:09.376Z,13.22
2018-09-22T04:20:35.533Z,13.31
2018-09-22T04:21:01.666Z,13.25
2018-09-22T04:21:27.841Z,13.18
2018-09-22T04:21:54.048Z,13.13
2018-09-22T04:22:20.225Z,13.12
2018-09-22T04:22:46.365Z,13.22
2018-09-22T04:23:12.522Z,13.15
2018-09-22T04:23:38.657Z,13.16
2018-09-22T04:24:04.788Z,13.12
2018-09-22T04:24:30.920Z,13.08
2018-09-22T04:24:57.079Z,13.16
2018-09-22T04:25:23.217Z,13.12
2018-09-22T04:25:49.348Z,13.13
2018-09-22T04:26:15.514Z,13.2
2018-09-22T04:26:41.687Z,13.15
2018-09-22T04:27:07.825Z,13.16
2018-09-22T04:27:33.958Z,13.16
2018-09-22T04:28:00.088Z,13.11
2018-09-22T04:28:26.246Z,13.28
2018-09-22T04:28:52.402Z,13.12
2018-09-22T04:29:18.661Z,13.16
2018-09-22T04:29:44.740Z,13.19
2018-09-22T04:30:10.905Z,13.12
2018-09-22T04:30:37.073Z,13.09
2018-09-22T04:31:03.235Z,13.16
2018-09-22T04:31:29.395Z,13.13
2018-09-22T04:31:55.547Z,13.25
2018-09-22T04:32:21.697Z,13.27
2018-09-22T04:32:47.887Z,13.31
2018-09-22T04:33:14.039Z,13.3
2018-09-22T04:33:40.171Z,13.25
2018-09-22T04:34:06.323Z,13.27
2018-09-22T04:34:32.532Z,13.28
2018-09-22T04:34:58.683Z,13.27
2018-09-22T04:35:24.842Z,13.22
2018-09-22T04:35:50.974Z,13.23
2018-09-22T04:36:17.127Z,13.23
2018-09-22T04:36:43.287Z,13.23
2018-09-22T04:37:09.444Z,13.25
2018-09-22T04:37:35.607Z,13.16
2018-09-22T04:38:01.759Z,13.11
2018-09-22T04:38:27.890Z,13.11
2018-09-22T04:38:54.024Z,13.15
2018-09-22T04:39:20.179Z,13.16
2018-09-22T04:39:46.306Z,13.11
2018-09-22T04:40:12.451Z,13.25
2018-09-22T04:40:38.601Z,13.25
2018-09-22T04:41:04.751Z,13.2
2018-09-22T04:41:30.908Z,13.25
2018-09-22T04:41:57.069Z,13.23
2018-09-22T04:42:23.195Z,13.23
2018-09-22T04:42:49.318Z,13.11
2018-09-22T04:43:15.477Z,13.09
2018-09-22T04:43:41.616Z,13.22
2018-09-22T04:44:07.767Z,13.15
2018-09-22T04:44:33.892Z,13.2
2018-09-22T04:45:00.072Z,13.15
2018-09-22T04:45:26.228Z,13.19
2018-09-22T04:45:52.366Z,13.12
2018-09-22T04:46:18.518Z,13.18
2018-09-22T04:46:44.651Z,13.22
2018-09-22T04:47:10.808Z,13.19
2018-09-22T04:47:36.942Z,13.15
2018-09-22T04:48:03.101Z,13.23
2018-09-22T04:48:29.263Z,13.28
2018-09-22T04:48:55.410Z,13.25
2018-09-22T04:49:21.543Z,13.25
2018-09-22T04:49:47.702Z,13.25
2018-09-22T04:50:13.885Z,13.33
2018-09-22T04:50:40.012Z,13.18
2018-09-22T04:51:06.149Z,13.09
2018-09-22T04:51:32.287Z,13.13
2018-09-22T04:51:58.457Z,13.2
2018-09-22T04:52:24.607Z,13.33
2018-09-22T04:52:50.742Z,13.38
2018-09-22T04:53:16.898Z,13.28
2018-09-22T04:53:43.026Z,13.38
2018-09-22T04:54:09.159Z,13.44
2018-09-22T04:54:35.289Z,13.37
2018-09-22T04:55:01.425Z,13.52
2018-09-22T04:55:27.575Z,13.54
2018-09-22T04:55:53.714Z,13.44
2018-09-22T04:56:19.845Z,13.47
2018-09-22T04:56:46.000Z,13.47
2018-09-22T04:57:12.131Z,13.52
2018-09-22T04:57:38.262Z,13.52
2018-09-22T04:58:04.411Z,13.5
2018-09-22T04:58:30.536Z,13.49
2018-09-22T04:58:56.669Z,13.5
2018-09-22T04:59:22.798Z,13.47
2018-09-22T04:59:48.929Z,13.53
2018-09-22T05:00:15.057Z,13.46
2018-09-22T05:00:41.200Z,13.47
2018-09-22T05:01:07.353Z,13.59
2018-09-22T05:01:33.521Z,13.65
2018-09-22T05:01:59.665Z,13.63
2018-09-22T05:02:25.867Z,13.68
2018-09-22T05:02:51.993Z,13.67
2018-09-22T05:03:18.135Z,13.62
2018-09-22T05:03:44.267Z,13.6
2018-09-22T05:04:10.405Z,13.63
2018-09-22T05:04:36.594Z,13.74
2018-09-22T05:05:02.727Z,13.79
2018-09-22T05:05:28.867Z,13.72
2018-09-22T05:05:54.996Z,13.67
2018-09-22T05:06:21.120Z,13.71
2018-09-22T05:06:47.270Z,13.67
2018-09-22T05:07:13.438Z,13.74
2018-09-22T05:07:39.558Z,13.71
2018-09-22T05:08:05.693Z,13.72
2018-09-22T05:08:31.855Z,13.75
2018-09-22T05:08:57.987Z,13.74
2018-09-22T05:09:24.125Z,13.77
2018-09-22T05:09:50.256Z,13.6
2018-09-22T05:10:16.380Z,13.68
2018-09-22T05:10:42.542Z,13.71
2018-09-22T05:11:08.697Z,13.49
2018-09-22T05:11:34.826Z,13.62
2018-09-22T05:12:00.964Z,13.7
2018-09-22T05:12:27.117Z,13.72
2018-09-22T05:12:53.252Z,13.77
2018-09-22T05:13:19.392Z,13.77
2018-09-22T05:13:45.521Z,13.83
2018-09-22T05:14:11.651Z,13.9
2018-09-22T05:14:37.785Z,13.89
2018-09-22T05:15:03.918Z,13.9
2018-09-22T05:15:30.075Z,13.96
2018-09-22T05:15:56.206Z,13.96
2018-09-22T05:16:22.336Z,13.99
2018-09-22T05:16:48.474Z,14.05
2018-09-22T05:17:14.605Z,13.97
2018-09-22T05:17:40.741Z,14.03
2018-09-22T05:18:06.876Z,13.95
2018-09-22T05:18:33.030Z,14.11
2018-09-22T05:18:59.176Z,13.97
2018-09-22T05:19:25.312Z,13.85
2018-09-22T05:19:51.469Z,13.79
2018-09-22T05:20:17.598Z,13.75
2018-09-22T05:20:43.731Z,13.71
2018-09-22T05:21:09.868Z,13.83
2018-09-22T05:21:36.021Z,13.79
2018-09-22T05:22:02.161Z,13.72
2018-09-22T05:22:28.292Z,13.77
2018-09-22T05:22:54.432Z,13.75
2018-09-22T05:23:20.591Z,13.74
2018-09-22T05:23:46.750Z,13.86
2018-09-22T05:24:12.906Z,13.85
2018-09-22T05:24:39.085Z,13.83
2018-09-22T05:25:05.169Z,13.9
2018-09-22T05:25:31.304Z,13.99
2018-09-22T05:25:57.463Z,13.93
2018-09-22T05:26:23.597Z,13.83
2018-09-22T05:26:49.732Z,13.85
2018-09-22T05:27:15.873Z,13.85
2018-09-22T05:27:42.048Z,13.72
2018-09-22T05:28:08.208Z,13.85
2018-09-22T05:28:34.336Z,13.97
2018-09-22T05:29:00.465Z,14.03
2018-09-22T05:29:26.597Z,13.87
2018-09-22T05:29:52.753Z,13.95
2018-09-22T05:30:18.887Z,13.89
2018-09-22T05:30:45.023Z,13.9
2018-09-22T05:31:11.157Z,13.85
2018-09-22T05:31:37.293Z,13.95
2018-09-22T05:32:03.441Z,13.92
2018-09-22T05:32:29.572Z,13.83
2018-09-22T05:32:55.755Z,13.92
2018-09-22T05:33:21.906Z,13.87
2018-09-22T05:33:48.037Z,13.79
2018-09-22T05:34:14.197Z,13.81
2018-09-22T05:34:40.380Z,13.74
2018-09-22T05:35:06.519Z,13.81
2018-09-22T05:35:32.697Z,13.74
2018-09-22T05:35:58.805Z,13.65
2018-09-22T05:36:24.963Z,13.62
2018-09-22T05:36:51.120Z,13.72
2018-09-22T05:37:17.255Z,13.77
2018-09-22T05:37:43.424Z,13.75
2018-09-22T05:38:09.554Z,13.74